Viimsi — ES2084 — position and weather

sailwx.info

Track history (hours):
 
Tides and Currents Weather Stations Pressure Air Temp Water Temp Dewpoint Dewpoint Depression Visibility Wind Speed Wind Dir Waves Ship Positions

Viimsi

Last reported at 2014-Sep-17 00:33 UTC. Time now 2014-Sep-17 01:31 UTC.
Position N 59°28' E 024°39'.

Length 78 m; draft 4 m.

Type: Ship. MMSI: 276297000.

Date/timePositionNaut miles runAvg speedWind from/ knotsBaromVisibWave heightAir tempDewpointWater temp
2014-Sep-17 00:33N 59°28' E 024°39'0 0.0
2014-Sep-16 23:33N 59°28' E 024°39'0 0.0
2014-Sep-16 22:33N 59°28' E 024°39'3 3.2
2014-Sep-16 21:33N 59°31' E 024°37'7 6.8
2014-Sep-16 20:33N 59°37' E 024°41'4 3.8
2014-Sep-16 19:34N 59°36' E 024°48'0 0.0
2014-Sep-16 18:33N 59°36' E 024°48'0 0.0
2014-Sep-16 17:34N 59°36' E 024°48'1 1.3
2014-Sep-16 16:33N 59°37' E 024°46'5 5.0
2014-Sep-16 15:33N 59°32' E 024°44'5 5.1
2014-Sep-16 14:33N 59°28' E 024°39'0 0.2
2014-Sep-16 13:33N 59°28' E 024°39'0 0.1
2014-Sep-16 12:33N 59°28' E 024°39'0 0.0
2014-Sep-16 11:31N 59°28' E 024°39'0 0.0
2014-Sep-16 09:31N 59°28' E 024°39'4 4.4
2014-Sep-16 08:33N 59°29' E 024°31'0 0.1
2014-Sep-16 07:33N 59°29' E 024°31'0 0.3
2014-Sep-16 06:33N 59°29' E 024°31'0 0.0
2014-Sep-16 05:33N 59°29' E 024°32'0 0.0
2014-Sep-16 04:33N 59°29' E 024°32'0 0.0
2014-Sep-16 03:33N 59°29' E 024°32'0 0.1
2014-Sep-16 02:33N 59°29' E 024°32'6 5.6
2014-Sep-16 01:34N 59°30' E 024°42'4 3.9
2014-Sep-16 00:33N 59°27' E 024°46'0 0.0
2014-Sep-15 23:33N 59°27' E 024°46'0 0.5
2014-Sep-15 22:34N 59°27' E 024°46'1 0.5
2014-Sep-15 21:34N 59°28' E 024°46'0 0.0
2014-Sep-15 20:33N 59°28' E 024°46'0 0.0
2014-Sep-15 19:34N 59°28' E 024°46'0 0.0
2014-Sep-15 18:33N 59°28' E 024°46'0 0.0
2014-Sep-15 17:33N 59°27' E 024°46'0 0.0
2014-Sep-15 16:33N 59°27' E 024°46'5 4.5
2014-Sep-15 15:33N 59°32' E 024°43'6 5.8
2014-Sep-15 14:31N 59°38' E 024°46'9 8.5
2014-Sep-15 13:27N 59°31' E 024°57'3 0.9
2014-Sep-15 10:08N 59°33' E 024°54'5 8.1
2014-Sep-15 09:31N 59°37' E 024°47'4 4.4
2014-Sep-15 08:31N 59°32' E 024°44'5 5.3
2014-Sep-15 07:30N 59°28' E 024°39'0 0.2
2014-Sep-15 06:29N 59°28' E 024°39'0 0.0
2014-Sep-15 05:33N 59°28' E 024°39'0 0.0
2014-Sep-15 04:28N 59°28' E 024°39'0 0.0
2014-Sep-15 03:33N 59°28' E 024°39'0 0.0
2014-Sep-15 02:34N 59°28' E 024°39'0 0.0
2014-Sep-15 01:33N 59°28' E 024°39'0 0.0
2014-Sep-15 00:34N 59°28' E 024°39'0 0.0
2014-Sep-14 23:34N 59°28' E 024°39'0 0.0
2014-Sep-14 22:33N 59°28' E 024°39'0 0.0
2014-Sep-14 21:33N 59°28' E 024°39'0 0.0
2014-Sep-14 20:33N 59°28' E 024°39'0 0.0
2014-Sep-14 19:34N 59°28' E 024°39'0 0.0
2014-Sep-14 18:33N 59°28' E 024°39'0 0.0
2014-Sep-14 17:34N 59°28' E 024°39'0 0.0
2014-Sep-14 16:34N 59°28' E 024°39'0 0.0
2014-Sep-14 15:33N 59°28' E 024°39'0 0.0
2014-Sep-14 14:34N 59°28' E 024°39'0 0.0
2014-Sep-14 13:34N 59°28' E 024°39'0 0.0
2014-Sep-14 12:33N 59°28' E 024°39'0 0.0
2014-Sep-14 11:34N 59°28' E 024°39'0 0.0
2014-Sep-14 10:33N 59°28' E 024°39'0 0.0
2014-Sep-14 09:33N 59°28' E 024°39'0 0.0
2014-Sep-14 08:33N 59°28' E 024°39'0 0.0
2014-Sep-14 07:33N 59°28' E 024°39'0 0.0
2014-Sep-14 06:34N 59°28' E 024°39'0 0.0
2014-Sep-14 05:33N 59°28' E 024°39'0 0.0
2014-Sep-14 04:33N 59°28' E 024°39'0 0.0
2014-Sep-14 03:33N 59°28' E 024°39'0 0.1
2014-Sep-14 02:33N 59°28' E 024°39'3 3.1
2014-Sep-14 01:33N 59°29' E 024°45'2 0.6
2014-Sep-13 21:34N 59°27' E 024°46'0 0.0
2014-Sep-13 20:33N 59°27' E 024°46'0 0.3
2014-Sep-13 19:33N 59°27' E 024°46'0 0.0
2014-Sep-13 18:33N 59°27' E 024°46'0 0.0
2014-Sep-13 17:33N 59°27' E 024°46'0 0.0
2014-Sep-13 16:33N 59°27' E 024°46'0 0.0
2014-Sep-13 15:33N 59°27' E 024°46'0 0.0
2014-Sep-13 14:33N 59°27' E 024°46'0 0.0
2014-Sep-13 13:33N 59°27' E 024°46'0 0.0
2014-Sep-13 12:33N 59°27' E 024°46'0 0.0
2014-Sep-13 11:33N 59°27' E 024°46'0 0.0
2014-Sep-13 10:33N 59°27' E 024°46'0 0.0
2014-Sep-13 09:33N 59°27' E 024°46'0 0.0
2014-Sep-13 08:33N 59°27' E 024°46'0 0.0
2014-Sep-13 07:33N 59°27' E 024°46'0 0.0
2014-Sep-13 06:33N 59°27' E 024°46'0 0.0
2014-Sep-13 05:33N 59°27' E 024°46'0 0.0
2014-Sep-13 04:33N 59°27' E 024°46'0 0.0
2014-Sep-13 03:34N 59°27' E 024°46'0 0.2
2014-Sep-13 02:33N 59°27' E 024°46'0 0.0
2014-Sep-13 01:33N 59°27' E 024°46'0 0.0
2014-Sep-13 00:33N 59°27' E 024°46'0 0.0
2014-Sep-12 23:33N 59°27' E 024°46'0 0.0
2014-Sep-12 22:33N 59°27' E 024°46'4 3.6
2014-Sep-12 21:33N 59°30' E 024°43'3 3.0
2014-Sep-12 20:33N 59°28' E 024°39'0 0.1
2014-Sep-12 19:33N 59°28' E 024°39'0 0.0
2014-Sep-12 18:33N 59°28' E 024°39'0 0.0
2014-Sep-12 17:33N 59°28' E 024°39'0 0.0
2014-Sep-12 16:34N 59°28' E 024°39'0 0.0
2014-Sep-12 15:33N 59°28' E 024°39'0 0.0
2014-Sep-12 14:33N 59°28' E 024°39'0 0.1
2014-Sep-12 13:33N 59°28' E 024°39'6 0.2
2014-Sep-11 07:19N 59°30' E 024°28'5 7.2
2014-Sep-11 06:33N 59°28' E 024°37'1 0.7
2014-Sep-11 05:33N 59°28' E 024°39'0 0.0
2014-Sep-11 04:33N 59°28' E 024°39'0 0.0
2014-Sep-11 03:33N 59°28' E 024°39'0 0.0
2014-Sep-11 02:33N 59°28' E 024°39'0 0.0
2014-Sep-11 01:33N 59°28' E 024°39'0 0.0
2014-Sep-11 00:33N 59°28' E 024°39'0 0.0
2014-Sep-10 23:33N 59°28' E 024°39'0 0.0
2014-Sep-10 22:33N 59°28' E 024°39'0 0.0
2014-Sep-10 21:33N 59°28' E 024°39'0 0.0
2014-Sep-10 20:33N 59°28' E 024°39'0 0.0
2014-Sep-10 19:33N 59°28' E 024°39'0 0.0
2014-Sep-10 18:33N 59°28' E 024°39'0 0.0
2014-Sep-10 17:33N 59°28' E 024°39'0 0.0
2014-Sep-10 16:33N 59°28' E 024°39'0 0.0
2014-Sep-10 15:33N 59°28' E 024°39'0 0.0
2014-Sep-10 14:33N 59°28' E 024°39'0 0.0
2014-Sep-10 13:33N 59°28' E 024°39'0 0.0
2014-Sep-10 12:33N 59°28' E 024°39'0 0.0
2014-Sep-10 11:34N 59°28' E 024°39'0 0.0
2014-Sep-10 10:33N 59°28' E 024°39'0 0.0
2014-Sep-10 09:34N 59°28' E 024°39'0 0.0
2014-Sep-10 08:33N 59°28' E 024°39'0 0.0
2014-Sep-10 07:33N 59°28' E 024°39'0 0.0
2014-Sep-10 06:33N 59°28' E 024°39'0 0.0
2014-Sep-10 05:33N 59°28' E 024°39'0 0.0
2014-Sep-10 04:33N 59°28' E 024°39'0 0.0
2014-Sep-10 03:33N 59°28' E 024°39'0 0.0
2014-Sep-10 02:33N 59°28' E 024°39'0 0.0
2014-Sep-10 01:33N 59°28' E 024°39'0 0.0
2014-Sep-10 00:33N 59°28' E 024°39'0 0.0
2014-Sep-09 23:33N 59°28' E 024°39'0 0.0
2014-Sep-09 22:33N 59°28' E 024°39'0 0.0
2014-Sep-09 21:33N 59°28' E 024°39'0 0.2
2014-Sep-09 20:33N 59°28' E 024°39'6 6.5
2014-Sep-09 19:33N 59°34' E 024°39'6 5.7
2014-Sep-09 18:34N 59°37' E 024°49'6 0.5
2014-Sep-09 08:18N 59°32' E 024°55'6 7.8
2014-Sep-09 07:34N 59°37' E 024°47'4 4.4
2014-Sep-09 06:34N 59°32' E 024°44'5 5.0
2014-Sep-09 05:33N 59°28' E 024°42'0 0.0
2014-Sep-09 04:33N 59°28' E 024°42'0 0.0
2014-Sep-09 03:33N 59°28' E 024°42'0 0.0
2014-Sep-09 02:33N 59°28' E 024°42'0 0.0
2014-Sep-09 01:33N 59°28' E 024°42'0 0.0
2014-Sep-09 00:33N 59°28' E 024°42'0 0.0
2014-Sep-08 23:33N 59°28' E 024°42'0 0.0
2014-Sep-08 22:33N 59°28' E 024°42'0 0.0
2014-Sep-08 21:33N 59°28' E 024°42'0 0.0
2014-Sep-08 20:33N 59°28' E 024°42'0 0.0
2014-Sep-08 19:33N 59°28' E 024°42'0 0.0
2014-Sep-08 18:33N 59°28' E 024°42'0 0.0
2014-Sep-08 17:33N 59°28' E 024°42'0 0.0
2014-Sep-08 16:33N 59°28' E 024°42'0 0.0
2014-Sep-08 15:33N 59°28' E 024°42'0 0.0
2014-Sep-08 14:21N 59°28' E 024°42'0 0.2
2014-Sep-08 13:29N 59°28' E 024°43'3 3.3
2014-Sep-08 12:32N 59°29' E 024°37'1 1.3
2014-Sep-08 11:32N 59°28' E 024°39'0 0.0
2014-Sep-08 09:33N 59°28' E 024°39'0 0.0
2014-Sep-08 08:31N 59°28' E 024°39'0 0.0
2014-Sep-08 07:32N 59°28' E 024°39'0 0.0
2014-Sep-08 06:25N 59°28' E 024°39'0 0.0
2014-Sep-08 05:32N 59°28' E 024°39'0 0.0
2014-Sep-08 04:20N 59°28' E 024°39'0 0.0
2014-Sep-08 03:33N 59°28' E 024°39'0 0.0
2014-Sep-08 02:33N 59°28' E 024°39'0 0.0
2014-Sep-08 01:33N 59°28' E 024°39'0 0.0
2014-Sep-08 00:33N 59°28' E 024°39'0 0.0
2014-Sep-07 23:33N 59°28' E 024°39'0 0.0
2014-Sep-07 22:34N 59°28' E 024°39'0 0.0
2014-Sep-07 21:33N 59°28' E 024°39'0 0.0
2014-Sep-07 20:33N 59°28' E 024°39'0 0.0
2014-Sep-07 19:33N 59°28' E 024°39'0 0.0
2014-Sep-07 18:33N 59°28' E 024°39'0 0.0
2014-Sep-07 17:33N 59°28' E 024°39'0 0.0
2014-Sep-07 16:33N 59°28' E 024°39'0 0.0
2014-Sep-07 15:33N 59°28' E 024°39'0 0.0
2014-Sep-07 14:33N 59°28' E 024°39'0 0.0
2014-Sep-07 13:33N 59°28' E 024°39'0 0.0
2014-Sep-07 12:33N 59°28' E 024°39'0 0.0
2014-Sep-07 11:33N 59°28' E 024°39'0 0.0
2014-Sep-07 10:33N 59°28' E 024°39'0 0.0
2014-Sep-07 09:33N 59°28' E 024°39'0 0.0
2014-Sep-07 08:33N 59°28' E 024°39'0 0.0
2014-Sep-07 07:33N 59°28' E 024°39'0 0.0
2014-Sep-07 06:33N 59°28' E 024°39'0 0.0
2014-Sep-07 05:33N 59°28' E 024°39'0 0.0
2014-Sep-07 04:33N 59°28' E 024°39'1 0.7
2014-Sep-07 03:33N 59°28' E 024°37'5 4.7
2014-Sep-07 02:33N 59°27' E 024°47'1 0.5
2014-Sep-07 01:33N 59°27' E 024°46'0 0.0
2014-Sep-07 00:33N 59°27' E 024°46'  
Track history (hours):
 
Tides and Currents Weather Stations Pressure Air Temp Water Temp Dewpoint Dewpoint Depression Visibility Wind Speed Wind Dir Waves Ship Positions

Viimsi

Last reported at 2014-Sep-17 00:33 UTC. Time now 2014-Sep-17 01:31 UTC.
Position N 59°28' E 024°39'.

Length 78 m; draft 4 m.

Type: Ship. MMSI: 276297000.

Date/timePositionNaut miles runAvg speedWind from/ knotsBaromVisibWave heightAir tempDewpointWater temp
2014-Sep-17 00:33N 59°28' E 024°39'0 0.0
2014-Sep-16 23:33N 59°28' E 024°39'0 0.0
2014-Sep-16 22:33N 59°28' E 024°39'3 3.2
2014-Sep-16 21:33N 59°31' E 024°37'7 6.8
2014-Sep-16 20:33N 59°37' E 024°41'4 3.8
2014-Sep-16 19:34N 59°36' E 024°48'0 0.0
2014-Sep-16 18:33N 59°36' E 024°48'0 0.0
2014-Sep-16 17:34N 59°36' E 024°48'1 1.3
2014-Sep-16 16:33N 59°37' E 024°46'5 5.0
2014-Sep-16 15:33N 59°32' E 024°44'5 5.1
2014-Sep-16 14:33N 59°28' E 024°39'0 0.2
2014-Sep-16 13:33N 59°28' E 024°39'0 0.1
2014-Sep-16 12:33N 59°28' E 024°39'0 0.0
2014-Sep-16 11:31N 59°28' E 024°39'0 0.0
2014-Sep-16 09:31N 59°28' E 024°39'4 4.4
2014-Sep-16 08:33N 59°29' E 024°31'0 0.1
2014-Sep-16 07:33N 59°29' E 024°31'0 0.3
2014-Sep-16 06:33N 59°29' E 024°31'0 0.0
2014-Sep-16 05:33N 59°29' E 024°32'0 0.0
2014-Sep-16 04:33N 59°29' E 024°32'0 0.0
2014-Sep-16 03:33N 59°29' E 024°32'0 0.1
2014-Sep-16 02:33N 59°29' E 024°32'6 5.6
2014-Sep-16 01:34N 59°30' E 024°42'4 3.9
2014-Sep-16 00:33N 59°27' E 024°46'0 0.0
2014-Sep-15 23:33N 59°27' E 024°46'0 0.5
2014-Sep-15 22:34N 59°27' E 024°46'1 0.5
2014-Sep-15 21:34N 59°28' E 024°46'0 0.0
2014-Sep-15 20:33N 59°28' E 024°46'0 0.0
2014-Sep-15 19:34N 59°28' E 024°46'0 0.0
2014-Sep-15 18:33N 59°28' E 024°46'0 0.0
2014-Sep-15 17:33N 59°27' E 024°46'0 0.0
2014-Sep-15 16:33N 59°27' E 024°46'5 4.5
2014-Sep-15 15:33N 59°32' E 024°43'6 5.8
2014-Sep-15 14:31N 59°38' E 024°46'9 8.5
2014-Sep-15 13:27N 59°31' E 024°57'3 0.9
2014-Sep-15 10:08N 59°33' E 024°54'5 8.1
2014-Sep-15 09:31N 59°37' E 024°47'4 4.4
2014-Sep-15 08:31N 59°32' E 024°44'5 5.3
2014-Sep-15 07:30N 59°28' E 024°39'0 0.2
2014-Sep-15 06:29N 59°28' E 024°39'0 0.0
2014-Sep-15 05:33N 59°28' E 024°39'0 0.0
2014-Sep-15 04:28N 59°28' E 024°39'0 0.0
2014-Sep-15 03:33N 59°28' E 024°39'0 0.0
2014-Sep-15 02:34N 59°28' E 024°39'0 0.0
2014-Sep-15 01:33N 59°28' E 024°39'0 0.0
2014-Sep-15 00:34N 59°28' E 024°39'0 0.0
2014-Sep-14 23:34N 59°28' E 024°39'0 0.0
2014-Sep-14 22:33N 59°28' E 024°39'0 0.0
2014-Sep-14 21:33N 59°28' E 024°39'0 0.0
2014-Sep-14 20:33N 59°28' E 024°39'0 0.0
2014-Sep-14 19:34N 59°28' E 024°39'0 0.0
2014-Sep-14 18:33N 59°28' E 024°39'0 0.0
2014-Sep-14 17:34N 59°28' E 024°39'0 0.0
2014-Sep-14 16:34N 59°28' E 024°39'0 0.0
2014-Sep-14 15:33N 59°28' E 024°39'0 0.0
2014-Sep-14 14:34N 59°28' E 024°39'0 0.0
2014-Sep-14 13:34N 59°28' E 024°39'0 0.0
2014-Sep-14 12:33N 59°28' E 024°39'0 0.0
2014-Sep-14 11:34N 59°28' E 024°39'0 0.0
2014-Sep-14 10:33N 59°28' E 024°39'0 0.0
2014-Sep-14 09:33N 59°28' E 024°39'0 0.0
2014-Sep-14 08:33N 59°28' E 024°39'0 0.0
2014-Sep-14 07:33N 59°28' E 024°39'0 0.0
2014-Sep-14 06:34N 59°28' E 024°39'0 0.0
2014-Sep-14 05:33N 59°28' E 024°39'0 0.0
2014-Sep-14 04:33N 59°28' E 024°39'0 0.0
2014-Sep-14 03:33N 59°28' E 024°39'0 0.1
2014-Sep-14 02:33N 59°28' E 024°39'3 3.1
2014-Sep-14 01:33N 59°29' E 024°45'2 0.6
2014-Sep-13 21:34N 59°27' E 024°46'0 0.0
2014-Sep-13 20:33N 59°27' E 024°46'0 0.3
2014-Sep-13 19:33N 59°27' E 024°46'0 0.0
2014-Sep-13 18:33N 59°27' E 024°46'0 0.0
2014-Sep-13 17:33N 59°27' E 024°46'0 0.0
2014-Sep-13 16:33N 59°27' E 024°46'0 0.0
2014-Sep-13 15:33N 59°27' E 024°46'0 0.0
2014-Sep-13 14:33N 59°27' E 024°46'0 0.0
2014-Sep-13 13:33N 59°27' E 024°46'0 0.0
2014-Sep-13 12:33N 59°27' E 024°46'0 0.0
2014-Sep-13 11:33N 59°27' E 024°46'0 0.0
2014-Sep-13 10:33N 59°27' E 024°46'0 0.0
2014-Sep-13 09:33N 59°27' E 024°46'0 0.0
2014-Sep-13 08:33N 59°27' E 024°46'0 0.0
2014-Sep-13 07:33N 59°27' E 024°46'0 0.0
2014-Sep-13 06:33N 59°27' E 024°46'0 0.0
2014-Sep-13 05:33N 59°27' E 024°46'0 0.0
2014-Sep-13 04:33N 59°27' E 024°46'0 0.0
2014-Sep-13 03:34N 59°27' E 024°46'0 0.2
2014-Sep-13 02:33N 59°27' E 024°46'0 0.0
2014-Sep-13 01:33N 59°27' E 024°46'0 0.0
2014-Sep-13 00:33N 59°27' E 024°46'0 0.0
2014-Sep-12 23:33N 59°27' E 024°46'0 0.0
2014-Sep-12 22:33N 59°27' E 024°46'4 3.6
2014-Sep-12 21:33N 59°30' E 024°43'3 3.0
2014-Sep-12 20:33N 59°28' E 024°39'0 0.1
2014-Sep-12 19:33N 59°28' E 024°39'0 0.0
2014-Sep-12 18:33N 59°28' E 024°39'0 0.0
2014-Sep-12 17:33N 59°28' E 024°39'0 0.0
2014-Sep-12 16:34N 59°28' E 024°39'0 0.0
2014-Sep-12 15:33N 59°28' E 024°39'0 0.0
2014-Sep-12 14:33N 59°28' E 024°39'0 0.1
2014-Sep-12 13:33N 59°28' E 024°39'6 0.2
2014-Sep-11 07:19N 59°30' E 024°28'5 7.2
2014-Sep-11 06:33N 59°28' E 024°37'1 0.7
2014-Sep-11 05:33N 59°28' E 024°39'0 0.0
2014-Sep-11 04:33N 59°28' E 024°39'0 0.0
2014-Sep-11 03:33N 59°28' E 024°39'0 0.0
2014-Sep-11 02:33N 59°28' E 024°39'0 0.0
2014-Sep-11 01:33N 59°28' E 024°39'0 0.0
2014-Sep-11 00:33N 59°28' E 024°39'0 0.0
2014-Sep-10 23:33N 59°28' E 024°39'0 0.0
2014-Sep-10 22:33N 59°28' E 024°39'0 0.0
2014-Sep-10 21:33N 59°28' E 024°39'0 0.0
2014-Sep-10 20:33N 59°28' E 024°39'0 0.0
2014-Sep-10 19:33N 59°28' E 024°39'0 0.0
2014-Sep-10 18:33N 59°28' E 024°39'0 0.0
2014-Sep-10 17:33N 59°28' E 024°39'0 0.0
2014-Sep-10 16:33N 59°28' E 024°39'0 0.0
2014-Sep-10 15:33N 59°28' E 024°39'0 0.0
2014-Sep-10 14:33N 59°28' E 024°39'0 0.0
2014-Sep-10 13:33N 59°28' E 024°39'0 0.0
2014-Sep-10 12:33N 59°28' E 024°39'0 0.0
2014-Sep-10 11:34N 59°28' E 024°39'0 0.0
2014-Sep-10 10:33N 59°28' E 024°39'0 0.0
2014-Sep-10 09:34N 59°28' E 024°39'0 0.0
2014-Sep-10 08:33N 59°28' E 024°39'0 0.0
2014-Sep-10 07:33N 59°28' E 024°39'0 0.0
2014-Sep-10 06:33N 59°28' E 024°39'0 0.0
2014-Sep-10 05:33N 59°28' E 024°39'0 0.0
2014-Sep-10 04:33N 59°28' E 024°39'0 0.0
2014-Sep-10 03:33N 59°28' E 024°39'0 0.0
2014-Sep-10 02:33N 59°28' E 024°39'0 0.0
2014-Sep-10 01:33N 59°28' E 024°39'0 0.0
2014-Sep-10 00:33N 59°28' E 024°39'0 0.0
2014-Sep-09 23:33N 59°28' E 024°39'0 0.0
2014-Sep-09 22:33N 59°28' E 024°39'0 0.0
2014-Sep-09 21:33N 59°28' E 024°39'0 0.2
2014-Sep-09 20:33N 59°28' E 024°39'6 6.5
2014-Sep-09 19:33N 59°34' E 024°39'6 5.7
2014-Sep-09 18:34N 59°37' E 024°49'6 0.5
2014-Sep-09 08:18N 59°32' E 024°55'6 7.8
2014-Sep-09 07:34N 59°37' E 024°47'4 4.4
2014-Sep-09 06:34N 59°32' E 024°44'5 5.0
2014-Sep-09 05:33N 59°28' E 024°42'0 0.0
2014-Sep-09 04:33N 59°28' E 024°42'0 0.0
2014-Sep-09 03:33N 59°28' E 024°42'0 0.0
2014-Sep-09 02:33N 59°28' E 024°42'0 0.0
2014-Sep-09 01:33N 59°28' E 024°42'0 0.0
2014-Sep-09 00:33N 59°28' E 024°42'0 0.0
2014-Sep-08 23:33N 59°28' E 024°42'0 0.0
2014-Sep-08 22:33N 59°28' E 024°42'0 0.0
2014-Sep-08 21:33N 59°28' E 024°42'0 0.0
2014-Sep-08 20:33N 59°28' E 024°42'0 0.0
2014-Sep-08 19:33N 59°28' E 024°42'0 0.0
2014-Sep-08 18:33N 59°28' E 024°42'0 0.0
2014-Sep-08 17:33N 59°28' E 024°42'0 0.0
2014-Sep-08 16:33N 59°28' E 024°42'0 0.0
2014-Sep-08 15:33N 59°28' E 024°42'0 0.0
2014-Sep-08 14:21N 59°28' E 024°42'0 0.2
2014-Sep-08 13:29N 59°28' E 024°43'3 3.3
2014-Sep-08 12:32N 59°29' E 024°37'1 1.3
2014-Sep-08 11:32N 59°28' E 024°39'0 0.0
2014-Sep-08 09:33N 59°28' E 024°39'0 0.0
2014-Sep-08 08:31N 59°28' E 024°39'0 0.0
2014-Sep-08 07:32N 59°28' E 024°39'0 0.0
2014-Sep-08 06:25N 59°28' E 024°39'0 0.0
2014-Sep-08 05:32N 59°28' E 024°39'0 0.0
2014-Sep-08 04:20N 59°28' E 024°39'0 0.0
2014-Sep-08 03:33N 59°28' E 024°39'0 0.0
2014-Sep-08 02:33N 59°28' E 024°39'0 0.0
2014-Sep-08 01:33N 59°28' E 024°39'0 0.0
2014-Sep-08 00:33N 59°28' E 024°39'0 0.0
2014-Sep-07 23:33N 59°28' E 024°39'0 0.0
2014-Sep-07 22:34N 59°28' E 024°39'0 0.0
2014-Sep-07 21:33N 59°28' E 024°39'0 0.0
2014-Sep-07 20:33N 59°28' E 024°39'0 0.0
2014-Sep-07 19:33N 59°28' E 024°39'0 0.0
2014-Sep-07 18:33N 59°28' E 024°39'0 0.0
2014-Sep-07 17:33N 59°28' E 024°39'0 0.0
2014-Sep-07 16:33N 59°28' E 024°39'0 0.0
2014-Sep-07 15:33N 59°28' E 024°39'0 0.0
2014-Sep-07 14:33N 59°28' E 024°39'0 0.0
2014-Sep-07 13:33N 59°28' E 024°39'0 0.0
2014-Sep-07 12:33N 59°28' E 024°39'0 0.0
2014-Sep-07 11:33N 59°28' E 024°39'0 0.0
2014-Sep-07 10:33N 59°28' E 024°39'0 0.0
2014-Sep-07 09:33N 59°28' E 024°39'0 0.0
2014-Sep-07 08:33N 59°28' E 024°39'0 0.0
2014-Sep-07 07:33N 59°28' E 024°39'0 0.0
2014-Sep-07 06:33N 59°28' E 024°39'0 0.0
2014-Sep-07 05:33N 59°28' E 024°39'0 0.0
2014-Sep-07 04:33N 59°28' E 024°39'1 0.7
2014-Sep-07 03:33N 59°28' E 024°37'5 4.7
2014-Sep-07 02:33N 59°27' E 024°47'1 0.5
2014-Sep-07 01:33N 59°27' E 024°46'0 0.0
2014-Sep-07 00:33N 59°27' E 024°46'  

Dump ship's entire track history